Time;durP1;ratioP1;P1;durP2;ratioP2;P2;SDS_P1;SDS_P2;PMS_P1;PMS_P2;Temp;Humidity;BMP_temperature;BMP_pressure;BME280_temperature;BME280_humidity;BME280_pressure;Samples;Min_cycle;Max_cycle;Signal;HPM_P1;HPM_P2
2023/09/26 00:00:39;;;;;;;3.38;1.50;;;37.80;26.60;;;;;;5070110;28;20510;-65
2023/09/26 00:02:59;;;;;;;6.32;1.38;;;37.80;27.00;;;;;;5070090;28;20091;-65
2023/09/26 00:05:25;;;;;;;6.75;1.50;;;37.70;27.20;;;;;;5069332;28;20032;-65
2023/09/26 00:07:52;;;;;;;22.75;16.55;;;37.60;26.90;;;;;;5075348;28;20017;-65
2023/09/26 00:10:19;;;;;;;31.90;17.05;;;37.60;27.10;;;;;;5069451;28;20016;-64
2023/09/26 00:12:46;;;;;;;25.88;17.08;;;37.60;26.90;;;;;;5067727;28;20017;-65
2023/09/26 00:15:13;;;;;;;2.08;1.30;;;37.50;26.80;;;;;;5067926;28;20510;-65
2023/09/26 00:17:40;;;;;;;7.00;1.58;;;37.40;27.10;;;;;;5064929;28;20550;-66
2023/09/26 00:20:17;;;;;;;4.45;1.30;;;37.40;27.60;;;;;;5068535;28;20012;-64
2023/09/26 00:22:44;;;;;;;3.55;1.20;;;37.30;27.00;;;;;;5066920;28;20009;-67
2023/09/26 00:25:10;;;;;;;2.47;1.10;;;37.30;28.00;;;;;;5071250;28;20021;-66
2023/09/26 00:27:37;;;;;;;2.65;1.30;;;37.20;28.00;;;;;;5080178;28;20016;-65
2023/09/26 00:30:03;;;;;;;7.20;1.20;;;37.10;28.20;;;;;;5073842;28;20031;-65
2023/09/26 00:32:30;;;;;;;5.25;1.55;;;37.10;28.10;;;;;;5071172;28;20103;-64
2023/09/26 00:34:57;;;;;;;2.42;1.15;;;37.00;28.50;;;;;;5068034;28;20012;-66
2023/09/26 00:37:23;;;;;;;3.50;1.50;;;36.90;28.10;;;;;;5069642;28;20039;-66
2023/09/26 00:39:50;;;;;;;3.80;1.35;;;36.80;27.70;;;;;;5073119;28;20008;-66
2023/09/26 00:42:16;;;;;;;5.28;1.40;;;36.80;28.40;;;;;;5075704;28;20436;-66
2023/09/26 00:44:42;;;;;;;8.32;1.60;;;36.70;27.80;;;;;;5069071;28;20020;-65
2023/09/26 00:47:09;;;;;;;3.95;1.17;;;36.60;28.20;;;;;;5074184;28;20016;-66
2023/09/26 00:49:36;;;;;;;9.10;1.58;;;36.60;28.00;;;;;;5080730;28;20489;-66
2023/09/26 00:52:04;;;;;;;5.18;1.50;;;36.50;28.10;;;;;;5072142;28;20020;-65
2023/09/26 00:54:32;;;;;;;2.13;1.25;;;36.40;27.90;;;;;;5074139;28;20040;-66
2023/09/26 00:56:59;;;;;;;4.45;1.73;;;36.30;28.40;;;;;;5068619;28;20024;-65
2023/09/26 00:59:26;;;;;;;7.05;2.28;;;36.20;27.70;;;;;;5068213;28;20028;-67
2023/09/26 01:01:55;;;;;;;5.68;1.70;;;36.20;28.20;;;;;;5066656;28;20013;-64
2023/09/26 01:04:22;;;;;;;6.97;2.50;;;36.10;28.00;;;;;;5073167;28;20103;-65
2023/09/26 01:06:49;;;;;;;24.42;15.43;;;36.00;29.50;;;;;;5076207;28;20065;-64
2023/09/26 01:09:15;;;;;;;21.83;16.08;;;35.90;31.00;;;;;;5070166;28;20095;-63
2023/09/26 01:11:42;;;;;;;21.13;16.38;;;35.80;29.60;;;;;;5075623;28;20016;-63
2023/09/26 01:14:09;;;;;;;24.23;16.50;;;35.70;29.30;;;;;;5068804;28;20013;-61
2023/09/26 01:16:35;;;;;;;20.17;15.88;;;35.60;29.40;;;;;;5067798;28;20451;-64
2023/09/26 01:19:02;;;;;;;21.85;15.50;;;35.50;29.00;;;;;;5067819;28;20029;-64
2023/09/26 01:21:29;;;;;;;21.75;15.90;;;35.50;29.60;;;;;;5074491;28;20028;-63
2023/09/26 01:23:59;;;;;;;21.35;16.15;;;35.40;28.80;;;;;;5073078;28;20020;-62
2023/09/26 01:26:25;;;;;;;24.33;18.10;;;35.30;29.10;;;;;;5074070;28;20091;-62
2023/09/26 01:28:52;;;;;;;27.08;17.42;;;35.20;29.30;;;;;;5068694;28;20361;-62
2023/09/26 01:31:18;;;;;;;23.42;18.70;;;35.00;29.40;;;;;;5068576;28;20472;-62
2023/09/26 01:33:45;;;;;;;28.40;16.90;;;35.00;30.00;;;;;;5080733;28;20023;-63
2023/09/26 01:36:11;;;;;;;25.58;15.75;;;34.90;30.00;;;;;;5069711;28;20067;-63
2023/09/26 01:38:38;;;;;;;29.00;18.15;;;34.70;29.80;;;;;;5070010;28;20056;-63
2023/09/26 01:41:04;;;;;;;8.00;1.90;;;34.60;29.50;;;;;;5075384;28;20083;-62
2023/09/26 01:43:31;;;;;;;7.97;2.00;;;34.50;29.80;;;;;;5065909;28;20008;-63
2023/09/26 01:45:57;;;;;;;5.95;2.10;;;34.40;29.80;;;;;;5069632;28;20619;-62
2023/09/26 01:48:24;;;;;;;8.05;1.80;;;34.20;29.80;;;;;;5065736;28;20035;-63
2023/09/26 01:50:50;;;;;;;10.40;2.05;;;34.10;29.80;;;;;;5049403;28;20017;-63
2023/09/26 01:53:17;;;;;;;7.55;1.55;;;34.00;30.00;;;;;;5072182;28;20040;-63
2023/09/26 01:55:43;;;;;;;12.50;2.08;;;33.90;30.10;;;;;;5070803;28;20044;-63
2023/09/26 01:58:09;;;;;;;6.55;2.10;;;33.80;30.10;;;;;;5072649;28;20115;-62
2023/09/26 02:00:37;;;;;;;13.35;2.60;;;33.70;30.10;;;;;;5079445;28;20020;-65
2023/09/26 02:03:04;;;;;;;11.70;2.75;;;33.60;30.80;;;;;;5080026;28;20103;-67
2023/09/26 02:05:30;;;;;;;15.95;2.40;;;33.60;30.80;;;;;;5078272;28;20563;-62
2023/09/26 02:07:57;;;;;;;16.35;2.92;;;33.50;30.80;;;;;;5075983;28;20057;-64
2023/09/26 02:10:23;;;;;;;14.98;2.40;;;33.40;30.90;;;;;;5080344;28;20103;-62
2023/09/26 02:12:51;;;;;;;17.35;3.03;;;33.30;31.10;;;;;;5084107;28;20540;-63
2023/09/26 02:15:17;;;;;;;10.02;2.65;;;33.20;31.60;;;;;;5075330;28;20016;-62
2023/09/26 02:17:44;;;;;;;18.83;2.80;;;33.20;31.70;;;;;;5070141;28;20029;-64
2023/09/26 02:20:14;;;;;;;23.50;2.67;;;33.10;32.90;;;;;;5070380;28;20008;-63
2023/09/26 02:22:49;;;;;;;24.08;3.10;;;33.00;33.00;;;;;;5069906;28;20005;-63
2023/09/26 02:25:18;;;;;;;17.88;3.60;;;33.00;33.50;;;;;;5068710;28;20059;-64
2023/09/26 02:27:45;;;;;;;30.80;3.22;;;32.90;34.00;;;;;;5068970;28;20542;-63
2023/09/26 02:30:14;;;;;;;13.93;2.63;;;32.80;33.80;;;;;;5079174;28;20016;-63
2023/09/26 02:32:41;;;;;;;15.63;2.60;;;32.70;33.80;;;;;;5052316;28;20017;-64
2023/09/26 02:35:11;;;;;;;16.48;3.35;;;32.70;34.00;;;;;;5068497;28;20016;-64
2023/09/26 02:37:38;;;;;;;15.82;3.08;;;32.60;35.20;;;;;;5075677;28;20025;-62
2023/09/26 02:40:09;;;;;;;14.05;3.53;;;32.50;35.40;;;;;;5070922;28;20096;-62
2023/09/26 02:42:45;;;;;;;28.08;4.22;;;32.50;36.00;;;;;;5073004;28;20463;-61
2023/09/26 02:45:13;;;;;;;;;;;32.40;35.00;;;;;;5069577;28;20004;-61
2023/09/26 02:47:40;;;;;;;21.55;3.92;;;32.40;35.70;;;;;;5053371;28;19905;-64
2023/09/26 02:50:07;;;;;;;29.52;6.28;;;32.20;35.50;;;;;;5070306;28;20027;-62
2023/09/26 02:52:34;;;;;;;19.83;6.43;;;32.20;35.40;;;;;;5069258;28;20089;-62
2023/09/26 02:55:02;;;;;;;47.58;8.52;;;32.10;35.90;;;;;;5065109;28;20021;-63
2023/09/26 02:57:28;;;;;;;41.28;7.85;;;32.00;36.30;;;;;;5065037;28;20892;-63
2023/09/26 02:59:55;;;;;;;27.35;6.90;;;31.90;36.70;;;;;;5067058;28;20860;-62
2023/09/26 03:02:21;;;;;;;40.13;7.15;;;31.90;37.00;;;;;;5064855;28;20020;-62
2023/09/26 03:04:48;;;;;;;48.63;7.55;;;31.80;37.30;;;;;;5070670;28;20534;-66
2023/09/26 03:07:18;;;;;;;59.55;7.13;;;31.80;38.40;;;;;;5072250;28;20032;-64
2023/09/26 03:09:46;;;;;;;34.53;6.07;;;31.70;37.50;;;;;;5069958;28;20012;-66
2023/09/26 03:12:12;;;;;;;35.13;5.70;;;31.60;36.90;;;;;;5055520;28;20086;-64
2023/09/26 03:14:39;;;;;;;37.72;6.82;;;31.60;38.40;;;;;;5076238;28;20044;-67
2023/09/26 03:17:06;;;;;;;54.90;6.20;;;31.50;37.80;;;;;;5073102;28;20076;-66
2023/09/26 03:19:32;;;;;;;17.73;5.07;;;31.50;38.10;;;;;;5081717;28;20417;-65
2023/09/26 03:21:58;;;;;;;39.53;5.70;;;31.40;37.20;;;;;;5077740;28;20017;-65
2023/09/26 03:24:25;;;;;;;28.63;5.25;;;31.30;37.70;;;;;;5073914;28;20012;-65
2023/09/26 03:26:51;;;;;;;37.00;6.32;;;31.20;36.90;;;;;;5073825;28;20023;-65
2023/09/26 03:29:18;;;;;;;28.75;5.60;;;31.20;37.50;;;;;;5073971;28;20373;-65
2023/09/26 03:31:45;;;;;;;34.05;6.07;;;31.20;37.80;;;;;;5077134;28;20013;-66
2023/09/26 03:34:12;;;;;;;30.85;6.65;;;31.10;38.90;;;;;;5070325;28;20013;-64
2023/09/26 03:36:38;;;;;;;36.30;7.15;;;31.00;38.30;;;;;;5074715;28;20142;-65
2023/09/26 03:39:06;;;;;;;68.47;9.02;;;30.90;38.90;;;;;;5070591;28;20531;-66
2023/09/26 03:41:33;;;;;;;64.25;10.60;;;30.90;37.20;;;;;;5072250;28;20013;-67
2023/09/26 03:43:59;;;;;;;99.60;12.98;;;30.90;37.70;;;;;;5072540;28;20020;-65
2023/09/26 03:46:26;;;;;;;90.20;12.93;;;30.90;36.80;;;;;;5075609;28;20057;-66
2023/09/26 03:48:52;;;;;;;72.03;12.60;;;31.00;36.80;;;;;;5071539;28;20025;-69
2023/09/26 03:51:19;;;;;;;71.75;12.48;;;31.00;36.60;;;;;;5056876;28;20478;-65
2023/09/26 03:53:46;;;;;;;80.93;14.60;;;31.00;36.10;;;;;;5068952;28;20015;-66
2023/09/26 03:56:12;;;;;;;86.03;13.88;;;31.00;36.40;;;;;;5073627;28;20024;-72
2023/09/26 03:58:39;;;;;;;109.28;14.65;;;31.00;37.10;;;;;;5071579;28;20596;-67
2023/09/26 04:01:13;;;;;;;90.65;15.55;;;30.90;36.40;;;;;;5072604;28;20009;-68
2023/09/26 04:03:41;;;;;;;75.20;13.75;;;30.90;36.40;;;;;;5072839;28;20044;-70
2023/09/26 04:06:07;;;;;;;174.80;19.00;;;30.80;36.80;;;;;;5068007;28;20021;-67
2023/09/26 04:08:34;;;;;;;87.43;15.23;;;30.80;36.40;;;;;;5065259;28;20024;-68
2023/09/26 04:11:00;;;;;;;173.27;19.98;;;30.80;39.20;;;;;;5071786;28;20438;-65
2023/09/26 04:13:27;;;;;;;120.00;17.60;;;30.70;38.20;;;;;;5073970;28;20028;-68
2023/09/26 04:15:54;;;;;;;116.60;17.13;;;30.60;38.10;;;;;;5072145;28;20016;-66
2023/09/26 04:18:22;;;;;;;107.00;15.00;;;30.70;38.10;;;;;;5072764;28;20029;-70
2023/09/26 04:20:52;;;;;;;110.20;16.25;;;30.60;38.30;;;;;;5068907;28;20384;-63
2023/09/26 04:23:18;;;;;;;97.35;15.10;;;30.50;39.00;;;;;;5071980;28;20031;-63
2023/09/26 04:25:45;;;;;;;83.72;15.13;;;30.40;38.30;;;;;;5052981;28;20019;-67
2023/09/26 04:28:12;;;;;;;89.20;15.88;;;30.40;38.90;;;;;;5074455;28;20020;-71
2023/09/26 04:30:39;;;;;;;98.47;15.00;;;30.40;40.40;;;;;;5050177;28;20027;-67
2023/09/26 04:33:09;;;;;;;113.10;17.02;;;30.30;39.60;;;;;;5071884;28;20028;-65
2023/09/26 04:35:36;;;;;;;112.63;17.50;;;30.20;39.20;;;;;;5077887;28;20027;-68
2023/09/26 04:38:04;;;;;;;91.78;16.90;;;30.10;39.90;;;;;;5067304;28;20036;-67
2023/09/26 04:40:30;;;;;;;85.88;16.33;;;30.10;40.00;;;;;;5073117;28;20020;-68
2023/09/26 04:43:04;;;;;;;71.40;15.50;;;30.10;39.30;;;;;;5071692;28;21234;-69
2023/09/26 04:45:32;;;;;;;85.97;14.93;;;30.10;40.80;;;;;;5071598;28;20072;-63
2023/09/26 04:48:02;;;;;;;108.60;15.68;;;30.10;40.60;;;;;;5067072;28;20442;-66
2023/09/26 04:50:30;;;;;;;92.05;15.43;;;30.00;39.30;;;;;;5049489;28;20041;-67
2023/09/26 04:52:57;;;;;;;56.88;13.30;;;30.00;40.10;;;;;;5069107;28;20138;-67
2023/09/26 04:55:24;;;;;;;86.75;13.63;;;30.00;39.80;;;;;;5067948;28;20194;-68
2023/09/26 04:57:51;;;;;;;60.47;13.02;;;30.00;40.70;;;;;;5078092;28;20428;-67
2023/09/26 05:00:17;;;;;;;66.47;13.57;;;30.10;39.40;;;;;;5064361;28;20058;-68
2023/09/26 05:02:45;;;;;;;64.38;13.23;;;30.10;39.70;;;;;;5066197;28;20053;-68
2023/09/26 05:05:12;;;;;;;61.08;13.25;;;30.10;39.20;;;;;;5068410;28;20066;-69
2023/09/26 05:07:43;;;;;;;59.67;13.10;;;30.00;39.00;;;;;;5070251;28;20042;-68
2023/09/26 05:10:10;;;;;;;57.33;11.45;;;30.00;39.80;;;;;;5069347;28;20040;-68
2023/09/26 05:12:40;;;;;;;61.63;13.82;;;30.00;40.30;;;;;;5078486;28;20051;-70
2023/09/26 05:15:12;;;;;;;46.10;10.85;;;30.00;40.90;;;;;;5061419;28;20434;-70
2023/09/26 05:17:49;;;;;;;52.28;9.25;;;30.00;41.20;;;;;;5082942;28;20438;-70
2023/09/26 05:20:17;;;;;;;36.22;8.70;;;30.00;41.30;;;;;;5070532;28;20051;-67
2023/09/26 05:22:48;;;;;;;29.08;7.25;;;30.00;41.40;;;;;;5067211;28;20043;-68
2023/09/26 05:25:15;;;;;;;21.88;6.28;;;30.00;40.90;;;;;;5068217;28;20127;-69
2023/09/26 05:27:43;;;;;;;20.50;6.80;;;30.00;40.60;;;;;;5073030;28;20051;-69
2023/09/26 05:30:12;;;;;;;17.92;6.90;;;30.00;41.10;;;;;;5065749;28;20524;-69
2023/09/26 05:32:40;;;;;;;16.15;6.22;;;30.00;40.90;;;;;;5049280;28;20048;-68
2023/09/26 05:35:07;;;;;;;23.38;5.90;;;29.90;41.80;;;;;;5069552;28;20048;-71
2023/09/26 05:37:34;;;;;;;14.57;7.57;;;29.90;41.00;;;;;;5074225;28;20059;-65
2023/09/26 05:40:01;;;;;;;18.23;5.93;;;29.80;41.10;;;;;;5070327;28;20511;-66
2023/09/26 05:42:29;;;;;;;17.05;6.40;;;29.80;41.00;;;;;;5073990;28;20050;-67
2023/09/26 05:44:55;;;;;;;12.30;5.53;;;29.80;41.90;;;;;;5047969;28;20112;-65
2023/09/26 05:47:22;;;;;;;13.38;5.28;;;29.70;42.00;;;;;;5079938;28;20414;-65
2023/09/26 05:49:50;;;;;;;59.67;8.88;;;29.70;41.80;;;;;;5070840;28;20504;-66
2023/09/26 05:52:17;;;;;;;17.95;6.03;;;29.70;42.00;;;;;;5066964;28;20047;-66
2023/09/26 05:54:44;;;;;;;12.13;6.10;;;29.60;41.80;;;;;;5072181;28;20048;-65
2023/09/26 05:57:11;;;;;;;12.25;5.78;;;29.60;42.00;;;;;;5074847;28;20405;-71
2023/09/26 05:59:37;;;;;;;12.25;5.95;;;29.60;41.50;;;;;;5073593;28;20052;-69
2023/09/26 06:02:04;;;;;;;9.70;5.93;;;29.70;41.20;;;;;;5071806;28;20116;-66
2023/09/26 06:04:31;;;;;;;9.45;5.50;;;29.70;40.90;;;;;;5077933;28;20062;-67
2023/09/26 06:06:58;;;;;;;10.45;5.88;;;29.80;41.30;;;;;;5073506;28;20071;-67
2023/09/26 06:09:24;;;;;;;11.63;5.57;;;29.80;41.70;;;;;;5053266;28;20043;-69
2023/09/26 06:11:51;;;;;;;12.95;6.00;;;29.80;41.90;;;;;;5079488;28;20545;-66
2023/09/26 06:14:17;;;;;;;11.27;5.93;;;29.80;42.00;;;;;;5072380;28;20056;-66
2023/09/26 06:16:44;;;;;;;13.15;5.95;;;29.80;42.30;;;;;;5070157;28;20121;-68
2023/09/26 06:19:10;;;;;;;19.42;6.30;;;29.70;42.60;;;;;;5077957;28;20058;-67
2023/09/26 06:21:37;;;;;;;11.32;6.28;;;29.70;42.80;;;;;;5073118;28;20578;-68
2023/09/26 06:24:06;;;;;;;11.40;6.55;;;29.70;42.60;;;;;;5067019;28;20090;-68
2023/09/26 06:26:32;;;;;;;12.18;5.97;;;29.70;42.30;;;;;;5062209;28;20048;-67
2023/09/26 06:28:59;;;;;;;18.02;7.88;;;29.70;42.10;;;;;;5068273;28;20131;-70
2023/09/26 06:31:25;;;;;;;13.48;7.88;;;29.70;42.20;;;;;;5069747;28;20063;-68
2023/09/26 06:33:53;;;;;;;15.45;8.13;;;29.70;42.00;;;;;;5068196;28;20528;-64
2023/09/26 06:36:21;;;;;;;16.25;8.70;;;29.70;42.20;;;;;;5065497;28;20060;-66
2023/09/26 06:38:48;;;;;;;18.45;8.73;;;29.70;41.90;;;;;;5068174;28;20116;-69
2023/09/26 06:41:14;;;;;;;14.30;8.48;;;29.70;41.80;;;;;;5066561;28;20077;-66
2023/09/26 06:43:41;;;;;;;15.85;8.82;;;29.70;41.80;;;;;;5065344;28;20492;-68
2023/09/26 06:46:08;;;;;;;13.10;8.13;;;29.70;41.50;;;;;;5070596;28;20073;-66
2023/09/26 06:48:41;;;;;;;15.02;7.30;;;29.70;41.20;;;;;;5056935;28;20042;-68
2023/09/26 06:51:08;;;;;;;16.08;8.07;;;29.70;41.30;;;;;;5066351;28;20056;-66
2023/09/26 06:53:36;;;;;;;10.25;6.55;;;29.70;40.80;;;;;;5071780;28;20043;-68
2023/09/26 06:56:07;;;;;;;16.85;6.93;;;29.70;40.50;;;;;;5052420;28;20063;-67
2023/09/26 06:58:35;;;;;;;22.80;17.85;;;29.60;40.60;;;;;;5071627;28;20086;-68
2023/09/26 07:01:02;;;;;;;21.45;15.90;;;29.70;39.70;;;;;;5056102;28;20413;-65
2023/09/26 07:03:29;;;;;;;14.05;12.73;;;29.70;40.00;;;;;;5070976;28;20103;-61
2023/09/26 07:05:56;;;;;;;21.10;9.35;;;29.70;39.80;;;;;;5066417;28;20039;-63
2023/09/26 07:08:23;;;;;;;13.55;5.90;;;29.80;39.60;;;;;;5068214;28;20031;-60
2023/09/26 07:10:50;;;;;;;14.18;5.75;;;29.80;39.10;;;;;;5068079;28;20013;-61
2023/09/26 07:13:17;;;;;;;15.48;5.88;;;29.90;38.70;;;;;;5066458;28;20381;-61
2023/09/26 07:15:44;;;;;;;11.10;5.70;;;29.90;38.40;;;;;;5070718;28;20046;-61
2023/09/26 07:18:11;;;;;;;8.93;5.53;;;29.90;38.30;;;;;;5074193;28;20028;-64
2023/09/26 07:20:47;;;;;;;8.75;4.82;;;30.00;38.60;;;;;;5069056;28;20009;-61
2023/09/26 07:23:14;;;;;;;9.60;5.20;;;30.00;38.20;;;;;;5065717;28;20025;-62
2023/09/26 07:25:41;;;;;;;8.45;4.60;;;30.00;37.60;;;;;;5070600;28;20009;-62
2023/09/26 07:28:07;;;;;;;12.10;4.75;;;30.00;38.00;;;;;;5068301;28;20051;-63
2023/09/26 07:30:34;;;;;;;11.25;4.28;;;30.00;37.20;;;;;;5066091;28;20029;-65
2023/09/26 07:33:01;;;;;;;10.25;4.35;;;29.90;37.90;;;;;;5069508;28;20017;-64
2023/09/26 07:35:28;;;;;;;8.45;4.88;;;29.90;38.10;;;;;;5069441;28;20027;-66
2023/09/26 07:37:56;;;;;;;8.82;4.80;;;29.90;38.20;;;;;;5072594;28;20032;-64
2023/09/26 07:40:23;;;;;;;10.27;4.90;;;29.80;38.00;;;;;;5074006;28;20024;-64
2023/09/26 07:42:49;;;;;;;12.43;4.70;;;29.80;37.50;;;;;;5066594;28;20027;-62
2023/09/26 07:45:16;;;;;;;14.70;4.80;;;29.70;37.80;;;;;;5066318;28;20017;-65
2023/09/26 07:47:46;;;;;;;11.10;4.60;;;29.70;37.80;;;;;;5069568;28;20031;-64
2023/09/26 07:50:12;;;;;;;10.30;4.70;;;29.70;38.30;;;;;;5066727;28;20028;-65
2023/09/26 07:52:39;;;;;;;7.50;4.60;;;29.60;37.90;;;;;;5066102;28;20024;-63
2023/09/26 07:55:06;;;;;;;13.95;4.90;;;29.60;38.20;;;;;;5066206;28;20023;-68
2023/09/26 07:57:32;;;;;;;9.95;4.88;;;29.60;39.10;;;;;;5051095;28;20024;-64
2023/09/26 07:59:59;;;;;;;12.32;4.85;;;29.50;39.20;;;;;;5067117;28;20017;-64
2023/09/26 08:02:25;;;;;;;12.10;6.05;;;29.50;39.20;;;;;;5068649;28;20070;-63
2023/09/26 08:04:52;;;;;;;19.35;6.15;;;29.40;39.10;;;;;;5065626;28;20029;-62
2023/09/26 08:07:18;;;;;;;13.55;6.20;;;29.30;39.80;;;;;;5070885;28;21098;-63
2023/09/26 08:09:45;;;;;;;11.60;6.10;;;29.20;39.70;;;;;;5066177;28;20484;-63
2023/09/26 08:12:11;;;;;;;10.68;6.35;;;29.10;40.40;;;;;;5053170;28;20379;-63
2023/09/26 08:14:37;;;;;;;17.50;6.72;;;29.10;40.70;;;;;;5068361;28;20024;-64
2023/09/26 08:17:04;;;;;;;17.40;7.10;;;29.00;40.60;;;;;;5062707;28;20067;-64
2023/09/26 08:19:30;;;;;;;16.55;7.10;;;29.00;41.00;;;;;;5067886;28;20012;-63
2023/09/26 08:21:57;;;;;;;14.13;8.10;;;28.90;41.00;;;;;;5064921;28;20171;-61
2023/09/26 08:24:23;;;;;;;10.80;6.57;;;28.80;41.30;;;;;;5067592;28;20059;-62
2023/09/26 08:26:50;;;;;;;16.25;7.85;;;28.70;41.50;;;;;;5071293;28;20020;-63
2023/09/26 08:29:16;;;;;;;10.73;6.95;;;28.70;41.60;;;;;;5067770;28;20096;-61
2023/09/26 08:31:43;;;;;;;12.60;6.72;;;28.60;42.00;;;;;;5069321;28;20020;-59
2023/09/26 08:34:09;;;;;;;12.70;6.70;;;28.60;42.20;;;;;;5066126;28;20023;-62
2023/09/26 08:36:36;;;;;;;10.82;6.70;;;28.50;42.70;;;;;;5065819;28;20039;-63
2023/09/26 08:39:03;;;;;;;9.52;6.03;;;28.40;42.80;;;;;;5039609;28;20446;-62
2023/09/26 08:41:32;;;;;;;15.65;5.82;;;28.40;42.90;;;;;;5065036;28;20012;-62
2023/09/26 08:43:59;;;;;;;6.55;5.68;;;28.30;42.60;;;;;;5067730;28;20110;-63
2023/09/26 08:46:25;;;;;;;9.95;5.55;;;28.30;43.20;;;;;;5065219;28;20470;-63
2023/09/26 08:48:54;;;;;;;12.73;6.07;;;28.20;42.90;;;;;;5069273;28;20061;-62
2023/09/26 08:51:22;;;;;;;11.35;5.55;;;28.20;42.40;;;;;;5061480;28;20040;-63
2023/09/26 08:53:48;;;;;;;10.82;4.93;;;28.10;42.70;;;;;;5064222;28;20013;-62
2023/09/26 08:56:15;;;;;;;11.27;5.05;;;28.10;42.70;;;;;;5064436;28;20013;-60
2023/09/26 08:58:43;;;;;;;12.15;4.88;;;28.00;42.30;;;;;;5068084;28;20086;-62
2023/09/26 09:01:10;;;;;;;9.80;5.60;;;28.10;43.00;;;;;;5063987;28;20049;-62
2023/09/26 09:03:36;;;;;;;9.88;4.95;;;28.10;42.60;;;;;;5070245;28;20429;-62
2023/09/26 09:06:03;;;;;;;7.60;4.50;;;28.10;42.50;;;;;;5064902;28;20040;-60
2023/09/26 09:08:29;;;;;;;9.40;4.85;;;28.10;41.90;;;;;;5065801;28;20021;-60
2023/09/26 09:10:56;;;;;;;7.93;4.03;;;28.10;41.90;;;;;;5064629;28;20021;-59
2023/09/26 09:13:30;;;;;;;7.78;3.95;;;28.00;41.50;;;;;;5067175;28;20504;-60
2023/09/26 09:16:12;;;;;;;10.98;4.38;;;28.10;41.50;;;;;;5065094;28;20031;-60
2023/09/26 09:18:39;;;;;;;5.13;4.00;;;28.00;41.30;;;;;;5067905;28;20572;-62
2023/09/26 09:21:31;;;;;;;5.15;4.13;;;28.00;41.20;;;;;;5065752;28;20016;-61
2023/09/26 09:24:06;;;;;;;8.93;3.92;;;27.90;41.80;;;;;;5064121;28;20104;-60
2023/09/26 09:26:35;;;;;;;11.73;4.20;;;27.80;41.50;;;;;;5065806;28;20016;-61
2023/09/26 09:29:21;;;;;;;8.93;4.35;;;27.90;41.40;;;;;;5065340;28;20050;-60
2023/09/26 09:31:48;;;;;;;7.88;4.60;;;27.90;41.90;;;;;;5068298;28;20070;-60
2023/09/26 09:34:19;;;;;;;5.53;4.05;;;27.90;41.50;;;;;;5065874;28;20124;-59
2023/09/26 09:36:45;;;;;;;8.40;4.03;;;27.80;41.50;;;;;;5066330;28;20016;-61
2023/09/26 09:39:12;;;;;;;6.15;4.18;;;27.80;41.50;;;;;;5068849;28;20464;-60
2023/09/26 09:41:39;;;;;;;7.75;4.10;;;27.80;41.20;;;;;;5049546;28;20023;-60
2023/09/26 09:44:06;;;;;;;9.30;4.80;;;27.80;41.40;;;;;;5065545;28;20065;-59
2023/09/26 09:46:40;;;;;;;6.35;3.85;;;27.80;41.80;;;;;;5065202;28;20072;-57
2023/09/26 09:49:11;;;;;;;9.15;4.15;;;27.80;41.40;;;;;;5068400;28;20037;-60
2023/09/26 09:51:43;;;;;;;7.88;4.25;;;27.80;41.80;;;;;;5066050;28;20500;-60
2023/09/26 09:54:16;;;;;;;8.75;3.85;;;27.80;41.60;;;;;;5066037;28;20023;-58
2023/09/26 09:56:48;;;;;;;13.82;3.70;;;27.80;41.40;;;;;;5067223;28;20066;-61
2023/09/26 09:59:16;;;;;;;7.65;3.88;;;27.80;41.20;;;;;;5065230;28;20503;-59
2023/09/26 10:01:49;;;;;;;9.75;4.10;;;27.80;41.60;;;;;;5066218;28;20074;-59
2023/09/26 10:04:16;;;;;;;9.43;3.70;;;27.80;41.10;;;;;;5067892;28;20070;-60
2023/09/26 10:06:43;;;;;;;8.93;4.00;;;27.80;41.10;;;;;;5067040;28;20140;-60
2023/09/26 10:09:10;;;;;;;8.13;4.13;;;27.70;40.60;;;;;;5061925;28;20405;-60
2023/09/26 10:11:38;;;;;;;8.52;3.72;;;27.80;40.40;;;;;;5067710;28;20070;-61
2023/09/26 10:14:07;;;;;;;14.93;4.47;;;27.80;40.50;;;;;;5068198;28;20066;-59
2023/09/26 10:16:33;;;;;;;6.65;3.85;;;27.70;41.10;;;;;;5064311;28;20082;-59
2023/09/26 10:19:00;;;;;;;12.88;4.20;;;27.70;41.10;;;;;;5069284;28;20089;-59
2023/09/26 10:21:30;;;;;;;9.73;4.75;;;27.70;41.70;;;;;;5067843;28;20017;-59
2023/09/26 10:24:06;;;;;;;8.93;4.88;;;27.70;42.00;;;;;;5068418;28;20016;-59
2023/09/26 10:26:44;;;;;;;11.53;4.80;;;27.70;42.40;;;;;;5067431;28;20448;-59
2023/09/26 10:29:31;;;;;;;7.47;4.68;;;27.70;42.30;;;;;;5062997;28;20012;-60
2023/09/26 10:31:59;;;;;;;7.03;4.60;;;27.70;42.70;;;;;;5070079;28;20027;-61
2023/09/26 10:34:35;;;;;;;11.48;5.30;;;27.60;43.70;;;;;;5065016;28;20389;-59
2023/09/26 10:37:03;;;;;;;9.30;5.25;;;27.60;43.90;;;;;;5068488;28;20009;-62
2023/09/26 10:39:40;;;;;;;14.82;5.60;;;27.50;43.30;;;;;;5065270;28;20051;-60
2023/09/26 10:42:20;;;;;;;11.43;6.13;;;27.50;42.90;;;;;;5069030;28;20013;-59
2023/09/26 10:44:49;;;;;;;9.55;4.93;;;27.50;43.30;;;;;;5066291;28;20074;-61
2023/09/26 10:47:21;;;;;;;10.32;5.43;;;27.50;43.10;;;;;;5070069;28;20444;-60
2023/09/26 10:49:47;;;;;;;9.70;5.18;;;27.50;44.30;;;;;;5068787;28;20032;-60
2023/09/26 10:52:15;;;;;;;7.40;5.03;;;27.50;43.90;;;;;;5068539;28;20463;-60
2023/09/26 10:54:42;;;;;;;10.50;4.95;;;27.50;44.20;;;;;;5068313;28;20702;-61
2023/09/26 10:57:20;;;;;;;14.40;5.20;;;27.40;44.90;;;;;;5068445;28;20024;-59
2023/09/26 10:59:49;;;;;;;11.45;5.65;;;27.40;43.90;;;;;;5067705;28;20494;-60
2023/09/26 11:02:15;;;;;;;12.68;6.03;;;27.40;44.50;;;;;;5070609;28;20365;-61
2023/09/26 11:04:42;;;;;;;10.80;5.50;;;27.30;44.40;;;;;;5069753;28;20040;-62
2023/09/26 11:07:10;;;;;;;7.50;5.00;;;27.30;44.00;;;;;;5069483;28;20350;-60
2023/09/26 11:09:41;;;;;;;10.80;5.72;;;27.30;44.20;;;;;;5066567;28;20012;-59
2023/09/26 11:12:08;;;;;;;9.38;5.25;;;27.30;45.00;;;;;;5064643;28;20103;-59
2023/09/26 11:14:35;;;;;;;10.45;5.45;;;27.10;45.40;;;;;;5069033;28;20016;-61
2023/09/26 11:17:04;;;;;;;7.40;4.88;;;27.10;44.80;;;;;;5068473;28;20021;-61
2023/09/26 11:19:31;;;;;;;9.13;4.75;;;27.00;44.70;;;;;;5070718;28;20082;-59
2023/09/26 11:21:57;;;;;;;10.18;6.25;;;26.90;44.10;;;;;;5065488;28;20085;-59
2023/09/26 11:24:30;;;;;;;12.15;5.63;;;26.90;44.10;;;;;;5070232;28;20438;-63
2023/09/26 11:27:01;;;;;;;68.22;7.60;;;26.90;44.20;;;;;;5066204;28;20550;-60
2023/09/26 11:29:28;;;;;;;27.85;6.32;;;26.90;44.00;;;;;;5071832;28;20020;-59
2023/09/26 11:31:56;;;;;;;13.07;5.63;;;26.80;44.30;;;;;;5067920;28;20118;-60
2023/09/26 11:34:24;;;;;;;9.32;5.10;;;26.70;44.10;;;;;;5069273;28;20425;-62
2023/09/26 11:36:51;;;;;;;8.57;5.35;;;26.60;46.20;;;;;;5065173;28;20507;-60
2023/09/26 11:39:21;;;;;;;8.90;5.22;;;26.50;46.00;;;;;;5068057;28;20032;-60
2023/09/26 11:42:08;;;;;;;10.77;5.70;;;26.40;46.50;;;;;;5050959;28;20527;-60
2023/09/26 11:44:35;;;;;;;;;;;26.30;46.40;;;;;;5064892;28;20033;-59
2023/09/26 11:47:03;;;;;;;8.68;5.28;;;26.30;45.80;;;;;;5066869;28;19975;-59
2023/09/26 11:49:30;;;;;;;8.48;5.40;;;26.20;46.70;;;;;;5067685;28;20144;-61
2023/09/26 11:51:57;;;;;;;9.40;5.78;;;26.20;46.40;;;;;;5068261;28;20392;-60
2023/09/26 11:54:23;;;;;;;9.38;4.80;;;26.20;46.00;;;;;;5069723;28;20076;-60
2023/09/26 11:56:52;;;;;;;7.88;5.07;;;26.30;45.20;;;;;;5067718;28;20052;-60
2023/09/26 11:59:18;;;;;;;11.55;4.80;;;26.30;44.90;;;;;;5067120;28;20418;-60
2023/09/26 12:01:45;;;;;;;14.48;4.78;;;26.20;44.90;;;;;;5069090;28;20027;-60
2023/09/26 12:04:12;;;;;;;12.98;5.43;;;26.20;45.20;;;;;;5068053;28;20035;-59
2023/09/26 12:06:42;;;;;;;10.43;4.80;;;26.20;45.00;;;;;;5068569;28;20043;-59
2023/09/26 12:09:21;;;;;;;12.02;5.30;;;26.10;45.00;;;;;;5065269;28;20578;-60
2023/09/26 12:11:53;;;;;;;17.95;5.00;;;26.10;44.60;;;;;;5066211;28;20096;-60
2023/09/26 12:14:20;;;;;;;8.75;5.32;;;26.10;46.10;;;;;;5065897;28;20053;-60
2023/09/26 12:16:50;;;;;;;8.93;4.70;;;26.00;46.60;;;;;;5064793;28;20098;-59
2023/09/26 12:19:19;;;;;;;12.23;4.95;;;26.00;46.20;;;;;;5067913;28;20051;-58
2023/09/26 12:21:46;;;;;;;8.10;4.93;;;26.00;46.40;;;;;;5069505;28;20075;-59
2023/09/26 12:24:16;;;;;;;11.50;5.15;;;26.00;46.00;;;;;;5066966;28;20039;-58
2023/09/26 12:26:46;;;;;;;8.02;4.72;;;25.90;45.40;;;;;;5067847;28;20142;-61
2023/09/26 12:29:15;;;;;;;10.55;5.07;;;25.90;45.80;;;;;;5067557;28;20066;-60
2023/09/26 12:31:45;;;;;;;11.52;4.90;;;25.80;45.90;;;;;;5068036;28;20060;-60
2023/09/26 12:34:15;;;;;;;10.75;4.88;;;25.80;45.70;;;;;;5067345;28;20091;-60
2023/09/26 12:36:41;;;;;;;9.90;4.88;;;25.70;46.10;;;;;;5065122;28;20051;-64
2023/09/26 12:39:08;;;;;;;10.27;5.13;;;25.70;47.40;;;;;;5063375;28;20499;-62
2023/09/26 12:41:35;;;;;;;8.77;4.70;;;25.60;45.90;;;;;;5069955;28;20066;-59